Etusivu
METAR-TAF:

METAR-TAF

Lentoasemat :

Rygge, Norja

Leveyspiiri: 59-23N, Pituuspiiri: 010-47E, korkeus merenpinnasta: 5 m

Tämänhetkinen sää

Tämä raportti tehtiin 28 minuuttia sitten, kello 15.20 UTC
Tuuli 5 kn idästä/koillisesta, vaihdellen pohjoisen/koillisen ja idän välillä
Lämpötila 13°C
Kosteus 62%
Ilmanpaine 1024 hPa
Näkyvyys 10 km tai enemmän
Hajonneita pilviä 3200 ft:n korkeudessa

METAR: ENRY 211520Z 07005KT 030V100 9999 BKN032 13/06 Q1024

Aika: 17:48 (15:48 UTC)

Sääennuste

Tämä raportti tehtiin 4 tuntia ja 48 minuuttia sitten, kello 11.00 UTC
Ennuste voimassa 21. päivästä klo 12 UTC - 22. päivään klo 12 UTC
Tuuli 7 kn idästä/koillisesta
Näkyvyys 10 km tai enemmän
Muutamia pilviä 1000 ft:n korkeudessa
Hajonneita pilviä 2500 ft:n korkeudessa
Todennäköisyys 30%
22. päivästä klo 03 UTC - 22. päivään klo 09 UTC
Hajonneita pilviä 800 ft:n korkeudessa

TAF: ENRY 211100Z 2112/2212 06007KT 9999 FEW010 BKN025 PROB30 2203/2209 BKN008

Säähavainnot ja -ennusteet yli 4000 lentoasemalta (METAR- ja TAF-raportit).

Käytössä olevat sääasemat on merkitty karttaan keltaisilla ja punaisilla pisteillä.

Aseta hiiri pisteen päälle nähdäksesi sääaseman nimen.

Klikkaa sitten nähdäksesi säähavainnot ja -ennusteet.

Kartan vaihtaminen: klikkaa mustalla rastilla varustettuja vihreitä pisteitä, niin voit zoomata sisään; viivalla varustettua vihreää pistettä, niin voit zoomata ulos tai vihreitä nuolia, niin pääset viereisille kartoille.


METAR-TAF: